Portada
METAR-TAF:

METAR-TAF

Aeropuertos :

Aeropuerto de Limoges

Limoges, Francia

latitud: 45-52N, longitud: 001-11E, altitud: 396 m

Observación

El informe se hizo hace 30 minutos, a las 20:00 UTC
Viento 5 kt del noreste
Temperatura 1°C
Humedad 86%
Presión 1020 hPa
Visibilidad: 6000 m

METAR: LFBL 292000Z AUTO 04005KT 6000 NSC 01/M01 Q1020 NOSIG

Hora: 21:30 (20:30 UTC)

Pronóstico

El informe se hizo hace 3 horas y 30 minutos, a las 17:00 UTC
Pronóstico válido del 29 a las 18 UTC al 30 a las 18 UTC
Viento 7 kt del noreste
Visibilidad 10 km o más
sin nubes por debajo de 1500 m y sin presencia de cumulonimbus.

TAF: LFBL 291700Z 2918/3018 04007KT CAVOK

Observaciones y pronósticos meteorológicos de más de 4000 aeropuertos (mensajes METAR y TAF).

Los puntos amarillos y rojos representan las estaciones disponibles.

Ponga el ratón en el punto deseado para ver el nombre de la estación.

Haga clic para ver las observaciones y los pronósticos meteorológicos.

Para cambiar el mapa : haga clic en los botones verdes con una cruz de color negro para hacer un zoom, en el botón verde con un guión para alejar o en las flechas verdes para mapas adyacentes.


METAR-TAF: